Have a Safe July 4th! 

Flight Track Log - Related Links

Times and Time Zones

All times are in EDT time to prevent confusion due to time zone crossing. See the UAL341 flight status page for this flight to view local times or setup timezone preferences in your user account.

Time Position Orientation Groundspeed Altitude Reporting Facility
EDT Latitude Longitude Course Direction KTS MPH feet Rate Location/Type
Wed 05:26:51 PM 39.4692 -119.7692 142° Southeast 167 192 37,000  Level Oakland Center
Wed 05:27:33 PM 39.4333 -119.7667 177° South 169 194 7,700 -16,059 Descending Northern Cal TRACON
Wed 05:28:33 PM 39.4000 -119.7167 131° Southeast 186 214 9,700 1,817 Climbing Northern Cal TRACON
Wed 05:29:00 PM 39.3225 -119.3836 135° Southeast  Level FlightAware Approximate
Wed 05:29:55 PM 39.3394 -119.6450 138° Southeast 209 241 12,000  Level Oakland Center
Wed 05:30:00 PM 39.2333 -119.2712 90° East  Level FlightAware Approximate
Wed 05:30:56 PM 39.2744 -119.5700 138° Southeast 290 334 13,500  Level Oakland Center
Wed 05:31:00 PM 39.1411 -119.1591 138° Southeast  Level FlightAware Approximate
Wed 05:31:58 PM 39.2214 -119.4622 122° Southeast 351 404 14,900  Level Oakland Center
Wed 05:32:00 PM 39.0509 -119.0509 142° Southeast  Level FlightAware Approximate
Wed 05:32:59 PM 39.1633 -119.3400 121° Southeast 396 456 16,800  Level Oakland Center
Wed 05:34:01 PM 39.1064 -119.2117 120° Southeast 414 476 18,300 1,854 Climbing Oakland Center
Wed 05:35:02 PM 39.0339 -119.0514 120° Southeast 433 498 20,600 1,951 Climbing Oakland Center
Wed 05:36:04 PM 38.9711 -118.9125 120° Southeast 450 518 22,300 1,561 Climbing Oakland Center
Wed 05:37:05 PM 38.9061 -118.7714 121° Southeast 462 532 23,800 1,415 Climbing Oakland Center
Wed 05:38:07 PM 38.8406 -118.6261 120° Southeast 473 544 25,200 1,268 Climbing Oakland Center
Wed 05:39:08 PM 38.7719 -118.4783 121° Southeast 483 556 26,400 1,171 Climbing Oakland Center
Wed 05:40:10 PM 38.7022 -118.3278 121° Southeast 489 563 27,600 1,122 Climbing Oakland Center
Wed 05:41:11 PM 38.6308 -118.1756 121° Southeast 497 572 28,700 1,317 Climbing Oakland Center
Wed 05:42:13 PM 38.5711 -117.9731 111° Southeast 506 582 30,300 1,561 Climbing Oakland Center
Wed 05:43:14 PM 38.5614 -117.7972 94° East 493 567 31,900 1,317 Climbing Oakland Center
Wed 05:44:16 PM 38.5575 -117.6239 92° East 487 560 33,000 1,171 Climbing Oakland Center
Wed 05:45:17 PM 38.5531 -117.4511 92° East 484 557 34,300 1,188 Climbing Oakland Center
Wed 05:45:52 PM 38.5494 -117.3472 93° East 483 556 34,900 438 Climbing Salt Lake Center
Wed 05:46:53 PM 38.5458 -117.1744 91° East 482 555 35,000 68 Climbing Salt Lake Center
Wed 05:47:20 PM 38.5439 -117.1056 92° East 483 556 35,000 341 Level Oakland Center
Wed 05:48:21 PM 38.5383 -116.9317 92° East 485 558 35,500 683 Climbing Oakland Center
Wed 05:49:23 PM 38.5336 -116.7578 92° East 487 560 36,400 732 Climbing Oakland Center
Wed 05:50:24 PM 38.5278 -116.5831 92° East 489 563 37,000 371 Climbing Oakland Center
Wed 05:51:00 PM 38.5247 -116.4797 92° East 487 560 37,000  Level Salt Lake Center
Wed 05:52:02 PM 38.5181 -116.3078 93° East 485 558 37,000  Level Salt Lake Center
Wed 05:52:27 PM 38.5164 -116.2383 92° East 486 559 37,000  Level Oakland Center
Wed 05:53:28 PM 38.5094 -116.0656 93° East 487 560 37,000  Level Oakland Center
Wed 05:54:05 PM 38.5072 -115.9617 92° East 487 560 37,000  Level Salt Lake Center
Wed 05:55:07 PM 38.4994 -115.7558 93° East 482 555 37,000  Level Salt Lake Center
Wed 05:56:08 PM 38.4922 -115.5861 93° East 478 550 37,000  Level Salt Lake Center
Wed 05:57:10 PM 38.4861 -115.4153 93° East 482 555 37,000  Level Salt Lake Center
Wed 05:58:12 PM 38.4781 -115.2408 93° East 481 554 37,000  Level Salt Lake Center
Wed 05:59:14 PM 38.4708 -115.0692 93° East 484 557 37,000  Level Salt Lake Center
Wed 06:00:15 PM 38.4625 -114.8992 94° East 482 555 37,000  Level Salt Lake Center
Wed 06:01:17 PM 38.4544 -114.7272 93° East 483 556 37,000  Level Salt Lake Center
Wed 06:02:19 PM 38.4464 -114.5556 93° East 486 559 37,000  Level Salt Lake Center
Wed 06:03:21 PM 38.4364 -114.3506 94° East 483 556 37,000  Level Salt Lake Center
Wed 06:04:22 PM 38.4286 -114.1800 93° East 483 556 37,000  Level Salt Lake Center
Wed 06:05:24 PM 38.4183 -114.0089 94° East 482 555 37,000  Level Salt Lake Center
Wed 06:06:26 PM 38.4097 -113.8361 94° East 488 562 37,000  Level Salt Lake Center
Wed 06:07:28 PM 38.4003 -113.6656 94° East 483 556 37,000  Level Salt Lake Center
Wed 06:08:29 PM 38.3892 -113.4928 95° East 487 560 37,000  Level Salt Lake Center
Wed 06:09:31 PM 38.3794 -113.3194 94° East 488 562 37,000  Level Salt Lake Center
Wed 06:10:33 PM 38.3692 -113.1458 94° East 490 564 37,000  Level Salt Lake Center
Wed 06:11:34 PM 38.3628 -112.9400 92° East 486 559 37,000  Level Salt Lake Center
Wed 06:12:36 PM 38.3692 -112.7692 87° East 480 552 37,000  Level Salt Lake Center
Wed 06:13:38 PM 38.3747 -112.5967 88° East 484 557 37,000  Level Salt Lake Center
Wed 06:14:39 PM 38.3797 -112.4236 88° East 488 562 37,000  Level Salt Lake Center
Wed 06:15:41 PM 38.3847 -112.2494 88° East 490 564 37,000 48 Level Salt Lake Center
Wed 06:16:43 PM 38.3897 -112.0719 88° East 497 572 37,100  Climbing Salt Lake Center
Wed 06:17:45 PM 38.3939 -111.8956 88° East 500 575 37,000  Descending Salt Lake Center
Wed 06:18:46 PM 38.3981 -111.7178 88° East 502 578 37,100  Climbing Salt Lake Center
Wed 06:19:48 PM 38.4036 -111.5061 88° East 500 575 37,000 -48 Descending Salt Lake Center
Wed 06:20:50 PM 38.4067 -111.3303 89° East 498 573 37,000  Level Salt Lake Center
Wed 06:21:51 PM 38.4111 -111.1542 88° East 497 572 37,000 49 Level Salt Lake Center
Wed 06:22:53 PM 38.4136 -110.9769 89° East 501 577 37,100  Climbing Salt Lake Center
Wed 06:23:55 PM 38.4164 -110.7803 89° East 504 580 37,000 -48 Descending Salt Lake Center
Wed 06:24:57 PM 38.4194 -110.6100 89° East 503 579 37,000  Level Salt Lake Center
Wed 06:25:18 PM 38.4200 -110.5525 89° East 502 578 37,000  Level Denver Center
Wed 06:26:20 PM 38.4247 -110.3547 88° East 501 577 37,000  Level Denver Center
Wed 06:27:00 PM 38.4275 -110.2428 88° East 501 577 37,000  Level Salt Lake Center
Wed 06:28:02 PM 38.4311 -110.0750 88° East 497 572 37,000  Level Salt Lake Center
Wed 06:28:25 PM 38.4314 -109.9886 90° East 499 574 37,000  Level Denver Center
Wed 06:29:27 PM 38.4350 -109.8167 88° East 508 585 37,000  Level Denver Center
Wed 06:30:29 PM 38.4378 -109.6153 89° East 509 586 37,000  Level Denver Center
Wed 06:31:31 PM 38.4411 -109.4436 89° East 508 585 37,000  Level Denver Center
Wed 06:32:33 PM 38.4431 -109.2400 89° East 514 592 37,000  Level Denver Center
Wed 06:33:35 PM 38.4450 -109.0633 89° East 520 598 37,000  Level Denver Center
Wed 06:34:37 PM 38.4464 -108.8558 89° East 524 603 37,000  Level Denver Center
Wed 06:35:39 PM 38.4483 -108.6808 89° East 518 596 37,000  Level Denver Center
Wed 06:36:41 PM 38.4497 -108.4747 89° East 522 601 37,000  Level Denver Center
Wed 06:37:43 PM 38.4508 -108.2989 89° East 521 600 37,000  Level Denver Center
Wed 06:38:45 PM 38.4508 -108.0933 90° East 522 601 37,000  Level Denver Center
Wed 06:39:47 PM 38.4550 -107.9164 88° East 522 601 37,000 -97 Level Denver Center
Wed 06:40:49 PM 38.5072 -107.7561 67° East 513 590 36,800 -629 Descending Denver Center
Wed 06:41:51 PM 38.5736 -107.5725 65° Northeast 511 588 35,700 -968 Descending Denver Center
Wed 06:42:53 PM 38.6322 -107.4133 65° Northeast 515 593 34,800 -968 Descending Denver Center
Wed 06:43:55 PM 38.7003 -107.2250 65° Northeast 521 600 33,700 -1,016 Descending Denver Center
Wed 06:44:57 PM 38.7597 -107.0581 65° Northeast 521 600 32,700 -968 Descending Denver Center
Wed 06:45:59 PM 38.8233 -106.8919 64° Northeast 519 597 31,700 -823 Descending Denver Center
Wed 06:47:01 PM 38.8953 -106.7208 62° Northeast 523 602 31,000 -339 Descending Denver Center
Wed 06:48:03 PM 38.9700 -106.5350 63° Northeast 527 606 31,000 -339 Level Denver Center
Wed 06:49:05 PM 39.0367 -106.3742 62° Northeast 531 611 30,300 -2,129 Descending Denver Center
Wed 06:50:07 PM 39.1131 -106.1869 62° Northeast 530 610 26,600 -3,290 Descending Denver Center
Wed 06:51:09 PM 39.1833 -106.0128 62° Northeast 522 601 23,500 -2,855 Descending Denver Center
Wed 06:52:11 PM 39.2469 -105.8519 63° Northeast 503 579 20,700 -2,146 Descending Denver Center
Wed 06:53:26 PM 39.3189 -105.6739 62° Northeast 481 554 18,600 -1,314 Descending Denver Center
Wed 06:54:28 PM 39.3714 -105.5394 63° Northeast 428 493 17,700 -677 Descending Denver Center
Wed 06:55:30 PM 39.3861 -105.4061 82° East 356 410 17,200 -968 Descending Denver Center
Wed 06:56:32 PM 39.3328 -105.3128 126° Southeast 323 372 15,700 -1,452 Descending Denver Center
Wed 06:57:34 PM 39.3169 -105.1897 99° East 320 368 14,200 -1,306 Descending Denver Center
Wed 06:58:36 PM 39.3306 -105.0797 81° East 316 364 13,000 -634 Descending Denver Center
Wed 06:59:37 PM 39.3417 -104.9781 82° East 273 314 12,900 -49 Descending Denver Center
Wed 07:00:39 PM 39.3586 -104.8911 76° East 256 295 12,900  Level Denver Center
Wed 07:01:41 PM 39.3808 -104.8044 72° East 255 293 12,900 -387 Level Denver Center
Wed 07:02:43 PM 39.4350 -104.7433 41° Northeast 240 276 12,100 -871 Descending Denver Center
Wed 07:03:45 PM 39.4906 -104.7039 29° Northeast 229 264 11,100 -871 Descending Denver Center
Wed 07:04:47 PM 39.5567 -104.6903 North 227 261 10,300 -581 Descending Denver Center
Wed 07:05:49 PM 39.6094 -104.6906 360° North 196 226 9,900 -435 Descending Denver Center
Wed 07:06:51 PM 39.6589 -104.6897 North 180 207 9,400 -726 Descending Denver Center
Wed 07:07:53 PM 39.7117 -104.6889 North 178 205 8,400 -927 Descending Denver Center
Wed 07:08:54 PM 39.7600 -104.6883 North 174 200 7,500 -885 Descending Denver Center

Login

Don't have an account? Register now (free) for customized features, flight alerts, and more!